createdAt,value
2023-03-17T00:01:25.060Z,70.87
2023-03-17T00:03:53.117Z,71.23
2023-03-17T00:06:28.476Z,70.87
2023-03-17T00:08:57.383Z,70.68
2023-03-17T00:11:27.416Z,70.48
2023-03-17T00:13:56.642Z,70.42
2023-03-17T00:16:28.099Z,69.77
2023-03-17T00:18:56.725Z,70.53
2023-03-17T00:21:29.144Z,70.72
2023-03-17T00:23:57.767Z,69.86
2023-03-17T00:26:26.462Z,69.12
2023-03-17T00:28:56.268Z,69.02
2023-03-17T00:31:27.253Z,69.86
2023-03-17T00:33:56.019Z,70.44
2023-03-17T00:36:28.091Z,70.09
2023-03-17T00:38:56.372Z,70.26
2023-03-17T00:41:27.131Z,70.25
2023-03-17T00:43:57.214Z,71.52
2023-03-17T00:46:28.850Z,71.15
2023-03-17T00:48:58.399Z,70.43
2023-03-17T00:51:26.283Z,70.54
2023-03-17T00:53:56.563Z,71.07
2023-03-17T00:56:24.680Z,71.10
2023-03-17T00:58:52.809Z,71.44
2023-03-17T01:01:22.105Z,71.37
2023-03-17T01:03:49.958Z,70.97
2023-03-17T01:06:18.134Z,71.47
2023-03-17T01:08:46.538Z,71.19
2023-03-17T01:11:18.678Z,71.25
2023-03-17T01:13:48.677Z,71.10
2023-03-17T01:16:17.047Z,72.60
2023-03-17T01:18:46.550Z,71.82
2023-03-17T01:21:15.355Z,71.38
2023-03-17T01:23:43.615Z,70.93
2023-03-17T01:26:11.752Z,71.27
2023-03-17T01:28:39.776Z,70.90
2023-03-17T01:31:07.700Z,71.71
2023-03-17T01:33:35.607Z,70.39
2023-03-17T01:36:05.316Z,70.47
2023-03-17T01:38:33.286Z,71.32
2023-03-17T01:41:01.521Z,70.09
2023-03-17T01:43:31.051Z,70.74
2023-03-17T01:46:21.770Z,69.46
2023-03-17T01:48:57.661Z,70.25
2023-03-17T01:51:32.385Z,70.47
2023-03-17T01:54:02.520Z,70.75
2023-03-17T01:56:31.491Z,70.99
2023-03-17T01:59:03.864Z,71.45
2023-03-17T02:01:38.631Z,71.44
2023-03-17T02:04:07.352Z,71.10
2023-03-17T02:06:42.164Z,71.39
2023-03-17T02:09:15.768Z,70.17
2023-03-17T02:11:45.418Z,70.85
2023-03-17T02:14:13.540Z,71.08
2023-03-17T02:16:42.001Z,70.74
2023-03-17T02:19:09.947Z,70.83
2023-03-17T02:21:42.728Z,71.04
2023-03-17T02:24:20.383Z,70.61
2023-03-17T02:26:50.626Z,70.35
2023-03-17T02:29:20.174Z,71.12
2023-03-17T02:31:48.090Z,71.08
2023-03-17T02:34:16.928Z,70.63
2023-03-17T02:36:46.600Z,70.56
2023-03-17T02:39:16.420Z,70.37
2023-03-17T02:41:44.314Z,70.27
2023-03-17T02:44:12.722Z,70.02
2023-03-17T02:46:40.604Z,69.64
2023-03-17T02:49:09.040Z,69.52
2023-03-17T02:51:37.116Z,70.18
2023-03-17T02:54:06.373Z,70.27
2023-03-17T02:56:34.418Z,70.50
2023-03-17T02:59:02.326Z,71.33
2023-03-17T03:01:30.905Z,71.80
2023-03-17T03:03:59.157Z,71.57
2023-03-17T03:06:27.324Z,71.48
2023-03-17T03:08:55.279Z,71.56
2023-03-17T03:11:24.481Z,71.07
2023-03-17T03:13:52.464Z,71.23
2023-03-17T03:16:20.938Z,71.55
2023-03-17T03:18:48.838Z,71.19
2023-03-17T03:21:16.659Z,71.96
2023-03-17T03:23:44.526Z,71.58
2023-03-17T03:26:12.916Z,72.34
2023-03-17T03:28:42.178Z,71.85
2023-03-17T03:31:10.330Z,72.06
2023-03-17T03:33:38.459Z,71.10
2023-03-17T03:36:07.737Z,72.10
2023-03-17T03:38:35.739Z,71.84
2023-03-17T03:41:03.790Z,72.13
2023-03-17T03:43:31.576Z,72.37
2023-03-17T03:46:00.952Z,71.65
2023-03-17T03:48:29.008Z,72.35
2023-03-17T03:50:58.017Z,71.70
2023-03-17T03:53:26.322Z,71.32
2023-03-17T03:55:54.498Z,71.48
2023-03-17T03:58:22.742Z,71.28
2023-03-17T04:00:51.167Z,71.98
2023-03-17T04:03:20.644Z,71.71
2023-03-17T04:05:48.424Z,71.90
2023-03-17T04:08:16.456Z,71.98
2023-03-17T04:10:44.570Z,72.14
2023-03-17T04:13:12.881Z,73.01
2023-03-17T04:15:40.864Z,73.04
2023-03-17T04:18:09.727Z,72.09
2023-03-17T04:20:39.485Z,72.49
2023-03-17T04:23:07.903Z,71.51
2023-03-17T04:25:36.654Z,72.82
2023-03-17T04:28:04.942Z,72.47
2023-03-17T04:30:33.323Z,72.29
2023-03-17T04:33:01.298Z,72.49
2023-03-17T04:35:29.239Z,73.18
2023-03-17T04:37:58.481Z,72.26
2023-03-17T04:40:27.625Z,72.63
2023-03-17T04:42:55.465Z,72.41
2023-03-17T04:45:23.293Z,72.47
2023-03-17T04:47:51.160Z,72.45
2023-03-17T04:50:19.093Z,73.23
2023-03-17T04:52:46.935Z,72.73
2023-03-17T04:55:16.527Z,72.76
2023-03-17T04:57:44.750Z,73.01
2023-03-17T05:00:15.389Z,72.41
2023-03-17T05:02:43.317Z,72.73
2023-03-17T05:05:12.243Z,72.10
2023-03-17T05:07:40.223Z,71.90
2023-03-17T05:10:09.386Z,72.09
2023-03-17T05:12:38.672Z,72.29
2023-03-17T05:15:07.787Z,72.00
2023-03-17T05:17:35.595Z,72.19
2023-03-17T05:20:04.310Z,72.12
2023-03-17T05:22:32.482Z,71.76
2023-03-17T05:25:00.464Z,71.91
2023-03-17T05:27:28.306Z,71.64
2023-03-17T05:29:57.724Z,72.13
2023-03-17T05:32:25.801Z,72.93
2023-03-17T05:34:53.934Z,72.25
2023-03-17T05:37:22.635Z,72.42
2023-03-17T05:39:50.981Z,72.66
2023-03-17T05:42:18.889Z,72.50
2023-03-17T05:44:46.787Z,72.85
2023-03-17T05:47:16.731Z,71.36
2023-03-17T05:49:44.602Z,72.25
2023-03-17T05:52:12.467Z,72.20
2023-03-17T05:54:40.590Z,72.02
2023-03-17T05:57:08.779Z,72.19
2023-03-17T05:59:36.994Z,71.52
2023-03-17T06:02:04.989Z,72.23
2023-03-17T06:04:34.221Z,72.53
2023-03-17T06:07:02.084Z,71.87
2023-03-17T06:09:30.052Z,72.22
2023-03-17T06:11:58.043Z,71.24
2023-03-17T06:14:27.158Z,71.80
2023-03-17T06:16:55.522Z,70.65
2023-03-17T06:19:23.564Z,71.11
2023-03-17T06:21:52.920Z,70.82
2023-03-17T06:24:21.069Z,70.06
2023-03-17T06:26:49.115Z,69.94
2023-03-17T06:29:17.053Z,68.98
2023-03-17T06:31:50.411Z,68.79
2023-03-17T06:34:18.435Z,67.98
2023-03-17T06:36:46.561Z,67.92
2023-03-17T06:39:16.672Z,67.21
2023-03-17T06:41:44.747Z,67.74
2023-03-17T06:44:13.091Z,67.16
2023-03-17T06:46:41.058Z,66.75
2023-03-17T06:49:09.358Z,66.14
2023-03-17T06:51:37.350Z,66.39
2023-03-17T06:54:06.530Z,65.81
2023-03-17T06:56:35.843Z,65.90
2023-03-17T06:59:04.994Z,65.98
2023-03-17T07:01:32.871Z,65.48
2023-03-17T07:04:01.040Z,65.67
2023-03-17T07:06:29.586Z,65.84
2023-03-17T07:08:57.599Z,66.41
2023-03-17T07:11:26.248Z,65.77
2023-03-17T07:13:56.311Z,65.14
2023-03-17T07:16:24.275Z,65.59
2023-03-17T07:18:52.460Z,65.85
2023-03-17T07:21:20.475Z,66.05
2023-03-17T07:23:48.321Z,64.48
2023-03-17T07:26:16.251Z,64.10
2023-03-17T07:28:44.639Z,63.72
2023-03-17T07:31:14.927Z,63.72
2023-03-17T07:33:43.480Z,64.66
2023-03-17T07:36:11.686Z,63.92
2023-03-17T07:38:39.862Z,64.06
2023-03-17T07:41:10.091Z,63.01
2023-03-17T07:43:39.073Z,61.89
2023-03-17T07:46:07.401Z,62.14
2023-03-17T07:48:40.758Z,61.82
2023-03-17T07:51:14.023Z,62.92
2023-03-17T07:53:42.300Z,62.18
2023-03-17T07:56:10.289Z,61.48
2023-03-17T07:58:38.182Z,61.42
2023-03-17T08:01:06.906Z,60.41
2023-03-17T08:03:38.160Z,60.34
2023-03-17T08:06:08.702Z,59.86
2023-03-17T08:08:36.960Z,58.63
2023-03-17T08:11:06.317Z,58.44
2023-03-17T08:13:35.002Z,58.34
2023-03-17T08:16:02.880Z,58.05
2023-03-17T08:18:31.011Z,58.66
2023-03-17T08:21:00.217Z,58.00
2023-03-17T08:23:28.006Z,59.17
2023-03-17T08:25:58.232Z,58.48
2023-03-17T08:28:27.116Z,60.03
2023-03-17T08:30:55.849Z,56.85
2023-03-17T08:33:23.765Z,58.19
2023-03-17T08:35:51.702Z,57.53
2023-03-17T08:38:20.941Z,58.73
2023-03-17T08:40:50.518Z,58.21
2023-03-17T08:43:18.723Z,58.48
2023-03-17T08:45:46.632Z,58.71
2023-03-17T08:48:15.313Z,58.62
2023-03-17T08:50:43.477Z,57.79
2023-03-17T08:53:11.898Z,58.34
2023-03-17T08:55:41.233Z,57.64
2023-03-17T08:58:09.497Z,57.37
2023-03-17T09:00:37.459Z,57.08
2023-03-17T09:03:05.747Z,55.32
2023-03-17T09:05:35.662Z,56.99
2023-03-17T09:08:06.048Z,55.23
2023-03-17T09:10:34.147Z,56.43
2023-03-17T09:13:04.567Z,55.28
2023-03-17T09:15:33.775Z,56.28
2023-03-17T09:18:03.264Z,56.63
2023-03-17T09:20:31.503Z,55.52
2023-03-17T09:23:00.354Z,56.34
2023-03-17T09:25:30.224Z,54.25
2023-03-17T09:27:58.726Z,55.54
2023-03-17T09:30:27.910Z,54.63
2023-03-17T09:32:55.943Z,53.91
2023-03-17T09:35:23.801Z,55.42
2023-03-17T09:37:51.637Z,52.93
2023-03-17T09:40:22.435Z,54.49
2023-03-17T09:43:03.065Z,53.52
2023-03-17T09:45:37.661Z,54.56
2023-03-17T09:48:33.601Z,52.79
2023-03-17T09:51:04.834Z,52.87
2023-03-17T09:53:36.151Z,52.96
2023-03-17T09:56:09.687Z,54.71
2023-03-17T09:58:39.408Z,52.81
2023-03-17T10:01:12.764Z,53.84
2023-03-17T10:03:41.162Z,52.74
2023-03-17T10:06:18.775Z,53.33
2023-03-17T10:08:52.499Z,52.99
2023-03-17T10:11:29.457Z,51.29
2023-03-17T10:14:03.325Z,53.00
2023-03-17T10:16:40.356Z,51.81
2023-03-17T10:19:19.678Z,50.90
2023-03-17T10:21:52.579Z,53.02
2023-03-17T10:24:21.984Z,50.06
2023-03-17T10:26:51.590Z,49.47
2023-03-17T10:29:22.791Z,50.05
2023-03-17T10:31:55.178Z,49.05
2023-03-17T10:34:27.671Z,49.42
2023-03-17T10:37:00.683Z,52.81
2023-03-17T10:39:32.532Z,50.25
2023-03-17T10:42:08.647Z,51.50
2023-03-17T10:44:44.824Z,49.16
2023-03-17T10:47:31.569Z,48.79
2023-03-17T10:50:02.751Z,48.85
2023-03-17T10:52:33.292Z,48.59
2023-03-17T10:55:03.711Z,48.53
2023-03-17T10:57:31.596Z,49.91
2023-03-17T11:00:05.081Z,48.91
2023-03-17T11:02:38.673Z,47.95
2023-03-17T11:05:19.439Z,50.00
2023-03-17T11:07:47.762Z,46.22
2023-03-17T11:10:20.322Z,46.61
2023-03-17T11:12:51.248Z,47.53
2023-03-17T11:15:20.324Z,45.41
2023-03-17T11:17:55.680Z,43.80
2023-03-17T11:20:45.700Z,45.69
2023-03-17T11:23:23.992Z,46.79
2023-03-17T11:26:03.062Z,46.07
2023-03-17T11:28:36.911Z,47.02
2023-03-17T11:31:13.069Z,47.80
2023-03-17T11:33:53.172Z,47.14
2023-03-17T11:36:37.221Z,47.31
2023-03-17T11:39:13.623Z,45.76
2023-03-17T11:41:49.996Z,47.54
2023-03-17T11:44:41.673Z,45.79
2023-03-17T11:47:21.014Z,46.00
2023-03-17T11:50:15.576Z,48.26
2023-03-17T11:52:56.288Z,46.47
2023-03-17T11:55:27.026Z,47.12
2023-03-17T11:57:58.452Z,47.22
2023-03-17T12:00:33.678Z,47.37
2023-03-17T12:03:14.605Z,46.44
2023-03-17T12:05:45.880Z,49.29
2023-03-17T12:08:21.877Z,48.07
2023-03-17T12:10:54.174Z,44.43
2023-03-17T12:13:26.557Z,43.71
2023-03-17T12:15:58.205Z,45.01
2023-03-17T12:18:32.633Z,43.59
2023-03-17T12:21:08.588Z,44.24
2023-03-17T12:23:42.159Z,43.79
2023-03-17T12:26:13.863Z,44.09
2023-03-17T12:28:47.571Z,42.33
2023-03-17T12:31:20.999Z,42.19
2023-03-17T12:33:54.933Z,42.63
2023-03-17T12:36:25.885Z,41.72
2023-03-17T12:38:57.907Z,45.78
2023-03-17T12:41:40.865Z,46.15
2023-03-17T12:44:21.181Z,46.53
2023-03-17T12:47:41.500Z,45.85
2023-03-17T12:50:34.338Z,43.61
2023-03-17T12:53:24.476Z,45.72
2023-03-17T12:55:55.669Z,46.46
2023-03-17T12:58:30.894Z,45.43
2023-03-17T13:01:08.897Z,46.13
2023-03-17T13:03:46.780Z,46.44
2023-03-17T13:06:20.829Z,46.58
2023-03-17T13:08:52.121Z,47.64
2023-03-17T13:11:29.430Z,44.99
2023-03-17T13:14:12.257Z,46.61
2023-03-17T13:16:41.657Z,45.64
2023-03-17T13:19:20.023Z,46.32
2023-03-17T13:21:57.368Z,46.15
2023-03-17T13:24:47.238Z,46.87
2023-03-17T13:27:36.126Z,47.37
2023-03-17T13:30:37.699Z,47.43
2023-03-17T13:33:23.228Z,46.82
2023-03-17T13:36:10.761Z,47.27
2023-03-17T13:39:18.419Z,48.35
2023-03-17T13:41:59.278Z,46.84
2023-03-17T13:44:38.498Z,47.00
2023-03-17T13:47:28.927Z,46.88
2023-03-17T13:50:03.430Z,46.79
2023-03-17T13:52:34.415Z,47.10
2023-03-17T13:55:12.158Z,47.84
2023-03-17T13:57:40.749Z,45.92
2023-03-17T14:00:23.293Z,48.78
2023-03-17T14:03:00.014Z,48.25
2023-03-17T14:05:32.925Z,48.55
2023-03-17T14:08:03.807Z,48.13
2023-03-17T14:10:34.051Z,48.40
2023-03-17T14:13:08.966Z,48.17
2023-03-17T14:15:47.959Z,50.06
2023-03-17T14:18:19.183Z,51.23
2023-03-17T14:20:55.620Z,52.08
2023-03-17T14:23:24.010Z,50.39
2023-03-17T14:25:52.611Z,49.40
2023-03-17T14:28:26.381Z,49.65
2023-03-17T14:30:56.750Z,50.15
2023-03-17T14:33:27.217Z,49.00
2023-03-17T14:35:59.537Z,49.56
2023-03-17T14:38:30.779Z,49.67
2023-03-17T14:41:04.352Z,48.38
2023-03-17T14:43:32.681Z,49.24
2023-03-17T14:46:02.557Z,50.04
2023-03-17T14:48:34.798Z,51.72
2023-03-17T14:51:07.625Z,50.47
2023-03-17T14:53:37.268Z,50.89
2023-03-17T14:56:05.732Z,50.13
2023-03-17T14:58:38.806Z,50.39
2023-03-17T15:01:08.861Z,49.51
2023-03-17T15:03:40.288Z,48.67
2023-03-17T15:06:23.829Z,49.06
2023-03-17T15:08:52.630Z,49.63
2023-03-17T15:11:29.538Z,51.18
2023-03-17T15:14:07.213Z,50.99
2023-03-17T15:16:37.118Z,51.10
2023-03-17T15:19:08.851Z,50.79
2023-03-17T15:21:41.476Z,51.65
2023-03-17T15:24:32.986Z,51.35
2023-03-17T15:27:04.212Z,51.22
2023-03-17T15:29:32.195Z,52.40
2023-03-17T15:32:11.089Z,52.94
2023-03-17T15:34:39.053Z,52.45
2023-03-17T15:37:15.993Z,53.13
2023-03-17T15:39:44.085Z,51.50
2023-03-17T15:42:12.016Z,51.76
2023-03-17T15:44:40.610Z,53.19
2023-03-17T15:47:13.250Z,51.98
2023-03-17T15:49:41.417Z,52.10
2023-03-17T15:52:16.174Z,51.85
2023-03-17T15:54:44.944Z,52.76
2023-03-17T15:57:13.772Z,51.08
2023-03-17T15:59:42.003Z,52.47
2023-03-17T16:02:25.855Z,51.68
2023-03-17T16:04:54.180Z,51.30
2023-03-17T16:07:24.561Z,51.47
2023-03-17T16:09:52.478Z,51.92
2023-03-17T16:12:21.150Z,51.34
2023-03-17T16:14:49.206Z,52.20
2023-03-17T16:17:21.661Z,52.80
2023-03-17T16:19:50.233Z,52.33
2023-03-17T16:22:37.380Z,53.40
2023-03-17T16:25:12.960Z,52.86
2023-03-17T16:27:41.116Z,53.30
2023-03-17T16:30:17.015Z,53.08
2023-03-17T16:32:45.278Z,52.91
2023-03-17T16:35:17.936Z,53.68
2023-03-17T16:37:48.053Z,53.51
2023-03-17T16:40:23.757Z,53.21
2023-03-17T16:42:51.822Z,53.56
2023-03-17T16:45:26.443Z,53.56
2023-03-17T16:47:55.034Z,55.15
2023-03-17T16:50:25.601Z,54.03
2023-03-17T16:52:55.301Z,53.52
2023-03-17T16:55:25.295Z,54.23
2023-03-17T16:57:55.968Z,54.07
2023-03-17T17:00:26.419Z,54.41
2023-03-17T17:02:55.202Z,53.52
2023-03-17T17:05:25.377Z,54.44
2023-03-17T17:07:56.710Z,54.42
2023-03-17T17:10:27.160Z,55.92
2023-03-17T17:12:55.639Z,56.32
2023-03-17T17:15:24.170Z,56.26
2023-03-17T17:17:56.423Z,55.21
2023-03-17T17:20:28.892Z,56.09
2023-03-17T17:22:59.014Z,57.21
2023-03-17T17:25:28.065Z,56.90
2023-03-17T17:27:57.039Z,55.71
2023-03-17T17:30:28.288Z,54.95
2023-03-17T17:32:58.869Z,54.31
2023-03-17T17:35:31.245Z,54.42
2023-03-17T17:38:02.056Z,53.57
2023-03-17T17:40:31.194Z,54.01
2023-03-17T17:42:59.504Z,53.34
2023-03-17T17:45:27.494Z,54.09
2023-03-17T17:47:55.413Z,53.93
2023-03-17T17:50:26.481Z,54.21
2023-03-17T17:52:55.032Z,53.66
2023-03-17T17:55:24.308Z,53.52
2023-03-17T17:57:52.697Z,54.95
2023-03-17T18:00:21.600Z,55.26
2023-03-17T18:02:49.416Z,55.05
2023-03-17T18:05:17.876Z,54.04
2023-03-17T18:07:46.217Z,55.19
2023-03-17T18:10:18.436Z,56.47
2023-03-17T18:12:48.157Z,57.78
2023-03-17T18:15:16.859Z,57.72
2023-03-17T18:17:45.049Z,57.01
2023-03-17T18:20:15.008Z,57.16
2023-03-17T18:22:43.604Z,57.55
2023-03-17T18:25:14.255Z,57.72
2023-03-17T18:27:42.714Z,56.48
2023-03-17T18:30:15.126Z,55.83
2023-03-17T18:32:43.971Z,56.30
2023-03-17T18:35:15.784Z,57.48
2023-03-17T18:37:45.088Z,57.26
2023-03-17T18:40:17.249Z,57.26
2023-03-17T18:42:47.026Z,57.51
2023-03-17T18:45:17.050Z,57.92
2023-03-17T18:47:44.986Z,58.90
2023-03-17T18:50:15.886Z,58.42
2023-03-17T18:52:44.846Z,58.81
2023-03-17T18:55:14.160Z,57.41
2023-03-17T18:57:44.489Z,57.05
2023-03-17T19:00:14.614Z,56.72
2023-03-17T19:02:44.518Z,58.33
2023-03-17T19:05:13.161Z,57.99
2023-03-17T19:07:41.892Z,58.79
2023-03-17T19:10:12.040Z,60.41
2023-03-17T19:12:42.573Z,59.51
2023-03-17T19:15:12.478Z,60.45
2023-03-17T19:17:41.704Z,60.53
2023-03-17T19:20:13.340Z,62.89
2023-03-17T19:22:41.639Z,63.52
2023-03-17T19:25:11.330Z,63.33
2023-03-17T19:27:39.935Z,64.41
2023-03-17T19:30:10.194Z,64.32
2023-03-17T19:32:38.577Z,64.54
2023-03-17T19:35:08.295Z,65.23
2023-03-17T19:37:38.301Z,65.46
2023-03-17T19:40:08.162Z,66.81
2023-03-17T19:42:36.280Z,66.15
2023-03-17T19:45:04.904Z,65.47
2023-03-17T19:47:33.108Z,64.09
2023-03-17T19:50:02.210Z,64.56
2023-03-17T19:52:31.151Z,63.90
2023-03-17T19:55:00.472Z,63.60
2023-03-17T19:57:28.820Z,64.80
2023-03-17T19:59:57.376Z,65.08
2023-03-17T20:02:25.780Z,66.09
2023-03-17T20:04:54.267Z,65.60
2023-03-17T20:07:23.168Z,65.89
2023-03-17T20:09:51.202Z,65.41
2023-03-17T20:12:20.649Z,66.00
2023-03-17T20:14:49.065Z,66.20
2023-03-17T20:17:17.777Z,66.51
2023-03-17T20:19:46.165Z,67.09
2023-03-17T20:22:14.027Z,67.16
2023-03-17T20:24:42.435Z,66.29
2023-03-17T20:27:11.356Z,66.92
2023-03-17T20:29:40.973Z,66.79
2023-03-17T20:32:09.162Z,67.43
2023-03-17T20:34:37.704Z,67.13
2023-03-17T20:37:06.061Z,66.75
2023-03-17T20:39:34.050Z,66.43
2023-03-17T20:42:04.229Z,66.59
2023-03-17T20:44:32.193Z,69.27
2023-03-17T20:47:01.926Z,67.92
2023-03-17T20:49:30.518Z,67.25
2023-03-17T20:51:58.443Z,67.72
2023-03-17T20:54:26.352Z,69.16
2023-03-17T20:56:56.555Z,69.78
2023-03-17T20:59:26.117Z,68.70
2023-03-17T21:01:54.133Z,69.34
2023-03-17T21:04:24.623Z,69.16
2023-03-17T21:06:52.421Z,69.45
2023-03-17T21:09:20.321Z,68.04
2023-03-17T21:11:49.253Z,67.78
2023-03-17T21:14:17.326Z,68.40
2023-03-17T21:16:47.269Z,69.67
2023-03-17T21:19:17.186Z,69.05
2023-03-17T21:21:46.554Z,68.78
2023-03-17T21:24:26.522Z,69.69
2023-03-17T21:26:54.709Z,68.24
2023-03-17T21:29:23.586Z,68.59
2023-03-17T21:31:51.704Z,67.90
2023-03-17T21:34:19.912Z,68.29
2023-03-17T21:36:49.251Z,69.43
2023-03-17T21:39:17.657Z,71.17
2023-03-17T21:41:46.840Z,70.92
2023-03-17T21:44:15.905Z,69.92
2023-03-17T21:46:44.162Z,67.74
2023-03-17T21:49:13.254Z,67.59
2023-03-17T21:51:41.244Z,63.69
2023-03-17T21:54:10.632Z,63.90
2023-03-17T21:56:39.663Z,61.72
2023-03-17T21:59:10.842Z,60.32
2023-03-17T22:01:39.021Z,59.58
2023-03-17T22:04:07.421Z,59.24
2023-03-17T22:06:35.440Z,59.21
2023-03-17T22:09:04.374Z,58.56
2023-03-17T22:11:33.584Z,58.91
2023-03-17T22:14:01.837Z,57.35
2023-03-17T22:16:30.076Z,57.92
2023-03-17T22:18:58.010Z,57.51
2023-03-17T22:21:26.054Z,57.75
2023-03-17T22:23:53.875Z,57.74
2023-03-17T22:26:22.955Z,57.54
2023-03-17T22:28:52.238Z,57.33
2023-03-17T22:31:22.277Z,57.47
2023-03-17T22:33:52.590Z,57.56
2023-03-17T22:36:20.794Z,58.74
2023-03-17T22:38:49.123Z,58.98
2023-03-17T22:41:18.719Z,58.38
2023-03-17T22:43:47.327Z,59.63
2023-03-17T22:46:17.720Z,59.76
2023-03-17T22:48:46.723Z,60.29
2023-03-17T22:51:17.322Z,60.08
2023-03-17T22:53:46.098Z,60.34
2023-03-17T22:56:16.382Z,62.29
2023-03-17T22:58:45.072Z,62.73
2023-03-17T23:01:16.225Z,63.06
2023-03-17T23:03:45.999Z,63.18
2023-03-17T23:06:15.421Z,62.75
2023-03-17T23:08:45.689Z,62.18
2023-03-17T23:11:17.172Z,62.58
2023-03-17T23:13:45.845Z,62.65
2023-03-17T23:16:14.645Z,62.96
2023-03-17T23:18:46.095Z,63.72
2023-03-17T23:21:21.873Z,64.03
2023-03-17T23:23:49.768Z,66.90
2023-03-17T23:26:17.974Z,66.58
2023-03-17T23:28:46.355Z,67.02
2023-03-17T23:31:15.790Z,67.75
2023-03-17T23:33:44.115Z,67.49
2023-03-17T23:36:13.977Z,68.10
2023-03-17T23:38:43.986Z,67.29
2023-03-17T23:41:12.719Z,67.73
2023-03-17T23:43:41.491Z,67.83
2023-03-17T23:46:09.490Z,66.72
2023-03-17T23:48:37.999Z,66.41
2023-03-17T23:51:06.844Z,67.09
2023-03-17T23:53:34.730Z,67.53
2023-03-17T23:56:04.859Z,69.58
2023-03-17T23:58:33.228Z,70.16
